Time;durP1;ratioP1;P1;durP2;ratioP2;P2;SDS_P1;SDS_P2;PMS_P1;PMS_P2;Temp;Humidity;BMP_temperature;BMP_pressure;BME280_temperature;BME280_humidity;BME280_pressure;Samples;Min_cycle;Max_cycle;Signal;HPM_P1;HPM_P2
2023/03/04 00:00:26;;;;;;;46.58;24.20;;;;;;;1.88;98.12;101301.50;6037692;23;20548;-72
2023/03/04 00:02:55;;;;;;;40.20;20.70;;;;;;;1.80;98.25;101301.31;6038848;23;20157;-69
2023/03/04 00:05:24;;;;;;;45.72;21.70;;;;;;;1.83;98.75;101290.41;6037095;23;20189;-71
2023/03/04 00:07:53;;;;;;;39.25;19.77;;;;;;;1.85;98.75;101291.09;6037436;23;20602;-69
2023/03/04 00:10:22;;;;;;;41.97;21.15;;;;;;;1.89;98.78;101284.50;6037793;23;20259;-69
2023/03/04 00:12:53;;;;;;;43.10;18.70;;;;;;;2.06;98.71;101281.16;6037574;23;20181;-70
2023/03/04 00:15:22;;;;;;;41.85;21.55;;;;;;;2.17;97.40;101289.06;6039256;23;20160;-70
2023/03/04 00:17:51;;;;;;;36.67;20.23;;;;;;;2.27;97.19;101286.41;6038462;23;20275;-70
2023/03/04 00:20:20;;;;;;;41.25;22.40;;;;;;;2.35;96.55;101291.03;6014725;23;20173;-70
2023/03/04 00:22:49;;;;;;;44.30;21.40;;;;;;;2.38;95.94;101296.09;6039214;23;20208;-70
2023/03/04 00:25:18;;;;;;;40.80;19.65;;;;;;;2.43;95.40;101292.03;6039075;23;20181;-69
2023/03/04 00:27:47;;;;;;;31.33;18.98;;;;;;;2.49;95.38;101290.63;6039662;23;20268;-70
2023/03/04 00:30:18;;;;;;;33.65;19.13;;;;;;;2.50;95.19;101286.97;6039613;23;20482;-70
2023/03/04 00:32:47;;;;;;;34.67;19.20;;;;;;;2.56;94.57;101283.75;6039300;23;20184;-71
2023/03/04 00:35:16;;;;;;;46.72;20.15;;;;;;;2.50;94.42;101279.81;6015425;23;20268;-68
2023/03/04 00:37:45;;;;;;;42.95;21.63;;;;;;;2.58;94.14;101281.75;6038941;23;20292;-72
2023/03/04 00:40:15;;;;;;;36.08;18.42;;;;;;;2.64;93.98;101281.19;6039209;23;20176;-70
2023/03/04 00:42:44;;;;;;;30.70;17.30;;;;;;;2.55;93.86;101266.03;6040265;23;20637;-69
2023/03/04 00:45:13;;;;;;;34.15;17.10;;;;;;;2.62;94.00;101272.47;6041994;23;20173;-69
2023/03/04 00:47:43;;;;;;;28.92;16.30;;;;;;;2.65;93.57;101272.22;6041984;23;20197;-70
2023/03/04 00:50:13;;;;;;;37.83;18.48;;;;;;;2.67;93.54;101270.22;6039927;23;20177;-69
2023/03/04 00:52:42;;;;;;;33.50;17.50;;;;;;;2.57;93.54;101275.56;6039309;23;20264;-69
2023/03/04 00:55:11;;;;;;;32.53;18.00;;;;;;;2.61;93.47;101266.28;6038339;23;20165;-70
2023/03/04 00:57:40;;;;;;;29.38;17.75;;;;;;;2.60;93.35;101263.78;6037965;23;20204;-70
2023/03/04 01:00:10;;;;;;;35.72;19.10;;;;;;;2.65;93.40;101269.53;6038141;23;20205;-70
2023/03/04 01:02:39;;;;;;;31.35;14.98;;;;;;;2.57;93.18;101269.38;6047325;23;20177;-69
2023/03/04 01:05:11;;;;;;;26.05;13.27;;;;;;;2.65;92.82;101256.19;6042788;23;20172;-69
2023/03/04 01:07:40;;;;;;;25.40;13.60;;;;;;;2.74;93.01;101255.31;6037748;23;20197;-69
2023/03/04 01:10:11;;;;;;;31.20;14.30;;;;;;;2.77;92.22;101249.66;6014363;23;20630;-70
2023/03/04 01:12:40;;;;;;;36.55;13.90;;;;;;;2.82;92.00;101255.44;6039476;23;20611;-70
2023/03/04 01:15:12;;;;;;;24.10;9.00;;;;;;;2.74;91.59;101251.78;6016639;23;20177;-71
2023/03/04 01:17:41;;;;;;;24.05;12.52;;;;;;;2.85;91.58;101252.50;6040630;23;20204;-68
2023/03/04 01:20:13;;;;;;;22.40;12.57;;;;;;;2.88;91.42;101244.16;6037472;23;20193;-69
2023/03/04 01:22:42;;;;;;;26.02;13.30;;;;;;;2.87;91.00;101233.63;6037982;23;20161;-70
2023/03/04 01:25:11;;;;;;;29.40;13.05;;;;;;;2.88;91.20;101236.16;6039781;23;20506;-70
2023/03/04 01:27:40;;;;;;;28.35;12.77;;;;;;;2.79;91.48;101231.69;6037271;23;20193;-69
2023/03/04 01:30:11;;;;;;;23.10;11.70;;;;;;;2.82;91.55;101228.69;6037636;23;20181;-69
2023/03/04 01:32:41;;;;;;;27.20;12.55;;;;;;;2.82;91.66;101235.88;6039030;23;20172;-70
2023/03/04 01:35:12;;;;;;;20.65;9.02;;;;;;;2.80;91.44;101228.03;6040675;23;20172;-69
2023/03/04 01:37:41;;;;;;;23.90;10.95;;;;;;;2.89;91.42;101219.13;6015582;23;20193;-69
2023/03/04 01:40:11;;;;;;;18.45;9.68;;;;;;;2.93;91.13;101223.19;6037999;23;20220;-70
2023/03/04 01:42:40;;;;;;;25.27;9.38;;;;;;;2.97;91.10;101219.25;6037473;23;20172;-70
2023/03/04 01:45:13;;;;;;;22.27;9.60;;;;;;;2.98;90.96;101220.94;6037790;23;20176;-69
2023/03/04 01:47:47;;;;;;;19.67;9.10;;;;;;;3.04;90.84;101223.03;6037970;23;20197;-69
2023/03/04 01:50:26;;;;;;;15.10;7.82;;;;;;;2.98;91.07;101212.91;6037708;23;20165;-69
2023/03/04 01:52:55;;;;;;;26.13;9.30;;;;;;;3.04;91.16;101200.81;6014204;23;20183;-69
2023/03/04 01:55:25;;;;;;;28.85;10.88;;;;;;;3.16;90.93;101202.28;6037118;23;20229;-70
2023/03/04 01:57:56;;;;;;;15.65;8.15;;;;;;;3.26;90.75;101203.09;6037290;23;20702;-68
2023/03/04 02:00:29;;;;;;;13.77;8.82;;;;;;;3.25;90.47;101197.88;6037484;23;20185;-70
2023/03/04 02:03:01;;;;;;;30.85;10.32;;;;;;;3.26;90.48;101199.56;6037602;23;20229;-69
2023/03/04 02:05:31;;;;;;;28.42;9.95;;;;;;;3.31;90.40;101210.66;6037478;23;20220;-70
2023/03/04 02:08:02;;;;;;;23.63;8.18;;;;;;;3.32;90.28;101196.31;6037285;23;20192;-69
2023/03/04 02:10:32;;;;;;;20.50;7.65;;;;;;;3.41;90.82;101200.78;6037191;23;20185;-70
2023/03/04 02:13:02;;;;;;;23.25;9.15;;;;;;;3.43;89.78;101188.09;6037480;23;20187;-69
2023/03/04 02:15:32;;;;;;;20.92;8.23;;;;;;;3.39;89.98;101189.38;6039644;23;20172;-70
2023/03/04 02:18:01;;;;;;;15.05;7.35;;;;;;;3.47;89.61;101190.31;6037306;23;20204;-69
2023/03/04 02:20:42;;;;;;;15.02;10.07;;;;;;;3.51;89.96;101190.88;6037615;23;20190;-69
2023/03/04 02:23:16;;;;;;;17.15;8.95;;;;;;;3.51;89.98;101185.50;6037516;23;20689;-70
2023/03/04 02:25:50;;;;;;;14.30;7.25;;;;;;;3.56;90.12;101182.38;6037890;23;20169;-70
2023/03/04 02:28:21;;;;;;;20.98;8.05;;;;;;;3.50;90.25;101173.13;6037694;23;20660;-69
2023/03/04 02:30:50;;;;;;;18.50;7.68;;;;;;;3.54;90.54;101168.28;6037865;23;20169;-69
2023/03/04 02:33:19;;;;;;;16.95;7.72;;;;;;;3.54;90.61;101166.47;6037782;23;20170;-70
2023/03/04 02:35:55;;;;;;;25.35;8.05;;;;;;;3.58;90.63;101161.69;6037940;23;20177;-69
2023/03/04 02:38:24;;;;;;;12.13;7.68;;;;;;;3.64;90.24;101159.22;6013592;23;20275;-69
2023/03/04 02:40:55;;;;;;;12.20;6.90;;;;;;;3.68;90.84;101151.75;6038069;23;20189;-70
2023/03/04 02:43:26;;;;;;;23.88;7.22;;;;;;;3.69;90.56;101154.25;6038410;23;20175;-71
2023/03/04 02:45:55;;;;;;;21.73;6.20;;;;;;;3.77;90.18;101149.00;6038639;23;20654;-71
2023/03/04 02:48:24;;;;;;;17.33;6.80;;;;;;;3.82;90.38;101154.75;6038089;23;20197;-68
2023/03/04 02:50:55;;;;;;;15.88;6.38;;;;;;;3.82;90.34;101151.22;6038302;23;20641;-71
2023/03/04 02:53:25;;;;;;;15.85;7.60;;;;;;;3.88;90.09;101150.59;6013809;23;20173;-71
2023/03/04 02:55:54;;;;;;;15.00;6.15;;;;;;;3.74;90.38;101143.94;6038108;23;20221;-70
2023/03/04 02:58:26;;;;;;;27.77;8.10;;;;;;;3.78;90.75;101131.94;6037924;23;20193;-71
2023/03/04 03:00:56;;;;;;;17.45;7.30;;;;;;;3.75;90.45;101139.44;6038166;23;20212;-71
2023/03/04 03:03:26;;;;;;;26.63;8.20;;;;;;;3.81;91.05;101139.69;6037244;23;20169;-71
2023/03/04 03:05:56;;;;;;;16.98;6.88;;;;;;;3.83;90.95;101144.84;6038412;23;20157;-69
2023/03/04 03:08:26;;;;;;;8.18;5.28;;;;;;;3.81;91.18;101137.00;6036653;23;20202;-69
2023/03/04 03:10:55;;;;;;;23.17;7.10;;;;;;;3.91;91.01;101140.44;6036861;23;20173;-70
2023/03/04 03:13:28;;;;;;;17.38;6.53;;;;;;;3.82;91.29;101149.41;6013298;23;20188;-70
2023/03/04 03:15:57;;;;;;;14.43;5.85;;;;;;;3.91;91.68;101145.81;6037252;23;20681;-69
2023/03/04 03:18:26;;;;;;;24.98;7.18;;;;;;;3.90;91.63;101137.91;6037597;23;20225;-70
2023/03/04 03:20:55;;;;;;;20.45;7.40;;;;;;;3.98;91.56;101132.63;6036588;23;20208;-70
2023/03/04 03:23:24;;;;;;;12.52;5.32;;;;;;;3.98;91.76;101129.94;6012658;23;20177;-70
2023/03/04 03:25:53;;;;;;;19.02;6.95;;;;;;;4.11;91.68;101126.91;6036143;23;20240;-70
2023/03/04 03:28:22;;;;;;;10.90;6.10;;;;;;;4.01;91.94;101120.78;6036599;23;20193;-69
2023/03/04 03:30:53;;;;;;;16.23;6.28;;;;;;;4.08;92.26;101113.78;6036703;23;20168;-71
2023/03/04 03:33:22;;;;;;;26.70;7.13;;;;;;;4.09;91.91;101115.47;6036931;23;20174;-68
2023/03/04 03:35:51;;;;;;;16.80;7.20;;;;;;;3.99;91.97;101120.06;6036417;23;20187;-69
2023/03/04 03:38:20;;;;;;;13.13;7.55;;;;;;;3.99;92.56;101110.22;6036666;23;20548;-69
2023/03/04 03:40:50;;;;;;;9.52;5.90;;;;;;;4.01;92.18;101121.63;6036823;23;20185;-70
2023/03/04 03:43:19;;;;;;;25.42;6.50;;;;;;;3.98;92.53;101113.03;6036696;23;20184;-69
2023/03/04 03:45:48;;;;;;;17.98;6.55;;;;;;;3.97;92.66;101106.03;6035921;23;20215;-70
2023/03/04 03:48:18;;;;;;;11.63;5.88;;;;;;;3.97;92.25;101100.66;6036475;23;20231;-69
2023/03/04 03:50:47;;;;;;;14.38;6.45;;;;;;;3.96;92.21;101094.47;6014082;23;20184;-70
2023/03/04 03:53:16;;;;;;;7.78;4.95;;;;;;;4.05;92.18;101098.88;6038659;23;20181;-69
2023/03/04 03:55:45;;;;;;;9.65;4.82;;;;;;;4.04;91.93;101101.72;6038187;23;20176;-70
2023/03/04 03:58:14;;;;;;;16.65;6.65;;;;;;;3.93;92.38;101100.94;6015860;23;20275;-69
2023/03/04 04:00:43;;;;;;;16.50;5.45;;;;;;;3.93;92.87;101103.63;6046362;23;20532;-70
2023/03/04 04:03:15;;;;;;;12.63;5.32;;;;;;;4.01;92.92;101102.03;6039079;23;20173;-70
2023/03/04 04:05:46;;;;;;;15.57;5.97;;;;;;;4.00;92.99;101095.00;6038794;23;20169;-70
2023/03/04 04:08:16;;;;;;;12.20;4.72;;;;;;;4.03;93.20;101089.31;6038835;23;20203;-71
2023/03/04 04:10:45;;;;;;;13.85;5.10;;;;;;;4.12;93.00;101093.72;6018078;23;20165;-69
2023/03/04 04:13:14;;;;;;;10.35;6.97;;;;;;;4.12;92.76;101099.09;6043009;23;20229;-70
2023/03/04 04:15:43;;;;;;;13.13;5.20;;;;;;;4.24;91.81;101089.81;6039656;23;20185;-70
2023/03/04 04:18:12;;;;;;;18.50;6.70;;;;;;;4.20;91.94;101091.97;6038569;23;20649;-70
2023/03/04 04:20:41;;;;;;;20.25;6.65;;;;;;;4.13;92.42;101093.59;6038513;23;20228;-69
2023/03/04 04:23:12;;;;;;;9.90;4.65;;;;;;;4.16;92.58;101093.28;6037997;23;20177;-69
2023/03/04 04:25:41;;;;;;;20.42;4.55;;;;;;;4.14;92.61;101089.91;6038339;23;20169;-69
2023/03/04 04:28:10;;;;;;;17.73;5.22;;;;;;;4.07;92.68;101085.31;6038116;23;20193;-70
2023/03/04 04:30:40;;;;;;;14.00;5.35;;;;;;;4.12;92.78;101088.38;6014535;23;20173;-70
2023/03/04 04:33:10;;;;;;;10.30;5.75;;;;;;;4.09;92.83;101083.34;6037732;23;20203;-70
2023/03/04 04:35:39;;;;;;;11.30;5.30;;;;;;;4.17;92.75;101081.56;6038365;23;20256;-71
2023/03/04 04:38:09;;;;;;;12.73;4.00;;;;;;;4.15;93.13;101080.91;6040497;23;20575;-69
2023/03/04 04:40:41;;;;;;;9.48;4.88;;;;;;;4.16;93.00;101079.91;6038020;23;20185;-70
2023/03/04 04:43:10;;;;;;;10.38;4.70;;;;;;;4.21;92.86;101079.44;6037937;23;20172;-69
2023/03/04 04:45:39;;;;;;;16.90;5.60;;;;;;;4.26;92.68;101069.09;6037795;23;20210;-70
2023/03/04 04:48:08;;;;;;;9.07;4.45;;;;;;;4.30;92.41;101070.44;6037634;23;20197;-70
2023/03/04 04:50:37;;;;;;;7.40;3.75;;;;;;;4.37;91.90;101066.13;6037703;23;20261;-70
2023/03/04 04:53:06;;;;;;;9.23;3.95;;;;;;;4.37;91.71;101058.09;6038437;23;20260;-70
2023/03/04 04:55:35;;;;;;;15.88;4.10;;;;;;;4.43;91.35;101059.31;6038213;23;20224;-69
2023/03/04 04:58:07;;;;;;;7.15;3.88;;;;;;;4.44;91.19;101061.84;6037919;23;20193;-70
2023/03/04 05:00:36;;;;;;;9.35;4.38;;;;;;;4.51;90.80;101062.03;6014464;23;20638;-70
2023/03/04 05:03:05;;;;;;;6.57;3.97;;;;;;;4.44;91.68;101069.03;6038362;23;20177;-70
2023/03/04 05:05:34;;;;;;;14.02;3.85;;;;;;;4.50;91.29;101061.19;6038953;23;20188;-70
2023/03/04 05:08:04;;;;;;;6.43;3.15;;;;;;;4.49;91.13;101064.88;6037663;23;20197;-70
2023/03/04 05:10:33;;;;;;;19.48;4.82;;;;;;;4.57;90.91;101061.38;6039601;23;20222;-69
2023/03/04 05:13:02;;;;;;;10.82;3.85;;;;;;;4.60;90.61;101061.91;6037582;23;20563;-70
2023/03/04 05:15:32;;;;;;;4.55;3.20;;;;;;;4.68;90.31;101067.31;6037524;23;20242;-69
2023/03/04 05:18:01;;;;;;;10.02;3.22;;;;;;;4.63;90.70;101066.97;6037280;23;20189;-70
2023/03/04 05:20:30;;;;;;;13.70;4.18;;;;;;;4.63;90.56;101056.25;6037490;23;20209;-70
2023/03/04 05:22:59;;;;;;;7.20;2.47;;;;;;;4.68;90.47;101053.91;6039580;23;20233;-69
2023/03/04 05:25:35;;;;;;;9.27;3.00;;;;;;;4.69;90.91;101055.63;6039588;23;20215;-70
2023/03/04 05:28:06;;;;;;;12.68;4.10;;;;;;;4.69;90.59;101060.97;6038531;23;20279;-70
2023/03/04 05:30:36;;;;;;;8.77;3.00;;;;;;;4.71;90.95;101056.28;6040937;23;20174;-71
2023/03/04 05:33:07;;;;;;;7.20;3.47;;;;;;;4.69;90.71;101058.28;6038682;23;20169;-70
2023/03/04 05:35:37;;;;;;;10.82;3.92;;;;;;;4.67;91.23;101057.59;6039375;23;20665;-69
2023/03/04 05:38:08;;;;;;;11.85;4.38;;;;;;;4.72;91.10;101063.31;6039256;23;20196;-69
2023/03/04 05:40:37;;;;;;;12.98;4.80;;;;;;;4.68;91.19;101061.97;6039949;23;20201;-70
2023/03/04 05:43:06;;;;;;;14.82;3.20;;;;;;;4.71;91.10;101058.09;6020039;23;20489;-68
2023/03/04 05:45:37;;;;;;;8.10;3.25;;;;;;;4.72;91.42;101059.78;6044746;23;20184;-71
2023/03/04 05:48:07;;;;;;;6.40;3.80;;;;;;;4.64;91.45;101057.09;6041974;23;20193;-71
2023/03/04 05:50:36;;;;;;;6.80;2.60;;;;;;;4.67;91.67;101049.56;6040194;23;20162;-69
2023/03/04 05:53:05;;;;;;;7.07;2.85;;;;;;;4.75;91.89;101051.41;6041136;23;20176;-70
2023/03/04 05:55:34;;;;;;;14.73;3.45;;;;;;;4.69;92.31;101058.28;6040257;23;20233;-70
2023/03/04 05:58:03;;;;;;;12.27;3.35;;;;;;;4.79;91.81;101056.28;6038759;23;20224;-69
2023/03/04 06:00:32;;;;;;;12.85;3.90;;;;;;;4.89;91.99;101050.00;6037240;23;20693;-69
2023/03/04 06:03:03;;;;;;;8.48;2.88;;;;;;;4.81;91.96;101053.47;6037569;23;20618;-70
2023/03/04 06:05:32;;;;;;;5.35;2.13;;;;;;;4.79;92.07;101056.28;6037622;23;20682;-70
2023/03/04 06:08:01;;;;;;;7.70;3.22;;;;;;;4.78;92.43;101046.59;6037175;23;20663;-70
2023/03/04 06:10:30;;;;;;;13.73;3.28;;;;;;;4.76;92.68;101056.63;6036930;23;20189;-69
2023/03/04 06:12:59;;;;;;;4.78;2.80;;;;;;;4.79;92.74;101060.84;6038503;23;20208;-71
2023/03/04 06:15:28;;;;;;;9.07;2.88;;;;;;;4.69;92.94;101055.63;6037973;23;20521;-68
2023/03/04 06:17:57;;;;;;;5.65;2.33;;;;;;;4.72;93.31;101057.13;6037206;23;20276;-69
2023/03/04 06:20:28;;;;;;;10.63;3.45;;;;;;;4.78;93.66;101057.31;6037504;23;20174;-69
2023/03/04 06:22:57;;;;;;;8.77;2.40;;;;;;;4.75;93.74;101065.66;6037227;23;20171;-71
2023/03/04 06:25:26;;;;;;;8.63;3.50;;;;;;;4.76;94.47;101061.16;6037144;23;20255;-70
2023/03/04 06:27:56;;;;;;;4.30;3.47;;;;;;;4.76;94.83;101062.00;6038740;23;20206;-70
2023/03/04 06:30:26;;;;;;;6.47;2.38;;;;;;;4.72;95.13;101063.31;6037637;23;20193;-70
2023/03/04 06:32:55;;;;;;;7.75;2.60;;;;;;;4.75;95.76;101060.31;6037057;23;20173;-70
2023/03/04 06:35:24;;;;;;;6.20;1.85;;;;;;;4.70;96.34;101054.59;6037045;23;20201;-68
2023/03/04 06:37:56;;;;;;;8.07;3.13;;;;;;;4.77;96.99;101058.31;6036817;23;20201;-69
2023/03/04 06:40:25;;;;;;;7.63;2.70;;;;;;;4.79;97.61;101063.53;6036642;23;20170;-69
2023/03/04 06:42:54;;;;;;;6.82;3.05;;;;;;;4.86;97.74;101061.88;6036968;23;20185;-69
2023/03/04 06:45:23;;;;;;;4.28;2.25;;;;;;;4.78;97.45;101064.53;6037631;23;20165;-69
2023/03/04 06:47:52;;;;;;;11.80;4.20;;;;;;;4.84;97.85;101057.69;6037541;23;20216;-69
2023/03/04 06:50:21;;;;;;;6.57;2.22;;;;;;;4.80;97.66;101062.50;6039374;23;20192;-69
2023/03/04 06:52:50;;;;;;;8.88;2.20;;;;;;;4.77;98.88;101069.03;6014031;23;20562;-68
2023/03/04 06:55:21;;;;;;;7.28;2.22;;;;;;;4.79;99.06;101069.72;6039325;23;20182;-69
2023/03/04 06:57:50;;;;;;;8.50;2.97;;;;;;;4.88;99.34;101064.41;6037699;23;20236;-69
2023/03/04 07:00:19;;;;;;;6.25;2.60;;;;;;;4.85;99.46;101059.34;6040932;23;20185;-68
2023/03/04 07:02:48;;;;;;;9.20;3.28;;;;;;;4.89;99.68;101066.09;6041157;23;20224;-70
2023/03/04 07:05:18;;;;;;;7.95;3.05;;;;;;;4.84;99.90;101076.44;6037477;23;20188;-69
2023/03/04 07:07:48;;;;;;;11.90;3.72;;;;;;;4.86;100.00;101066.38;6013478;23;20296;-69
2023/03/04 07:10:17;;;;;;;7.80;3.55;;;;;;;4.86;100.00;101077.13;6037421;23;20178;-70
2023/03/04 07:12:48;;;;;;;9.35;3.20;;;;;;;4.84;100.00;101076.44;6037277;23;20165;-69
2023/03/04 07:15:17;;;;;;;5.50;3.15;;;;;;;4.84;100.00;101079.97;6037579;23;20558;-69
2023/03/04 07:17:46;;;;;;;9.65;3.75;;;;;;;4.77;100.00;101079.78;6037346;23;20192;-70
2023/03/04 07:20:15;;;;;;;6.25;3.10;;;;;;;4.92;100.00;101084.53;6037164;23;20177;-69
2023/03/04 07:22:44;;;;;;;15.23;4.57;;;;;;;4.78;100.00;101076.09;6013315;23;20276;-69
2023/03/04 07:25:13;;;;;;;4.80;2.97;;;;;;;4.82;100.00;101085.50;6038107;23;20169;-70
2023/03/04 07:27:42;;;;;;;6.05;3.08;;;;;;;4.93;100.00;101083.53;6015542;23;20190;-70
2023/03/04 07:30:14;;;;;;;7.00;1.80;;;;;;;4.99;100.00;101074.81;6039819;23;20200;-70
2023/03/04 07:32:43;;;;;;;6.30;2.70;;;;;;;5.13;100.00;101075.03;6016043;23;20241;-71
2023/03/04 07:35:12;;;;;;;5.63;3.45;;;;;;;5.26;100.00;101066.53;6039588;23;20643;-69
2023/03/04 07:37:41;;;;;;;12.52;5.82;;;;;;;5.36;100.00;101064.56;6039765;23;20252;-69
2023/03/04 07:40:11;;;;;;;5.65;1.98;;;;;;;5.45;99.96;101066.25;6039949;23;20184;-69
2023/03/04 07:42:40;;;;;;;8.00;2.78;;;;;;;5.30;100.00;101078.63;6039024;23;20217;-68
2023/03/04 07:45:14;;;;;;;3.05;2.25;;;;;;;5.41;100.00;101074.81;6039091;23;20438;-69
2023/03/04 07:47:43;;;;;;;2.92;2.10;;;;;;;5.25;100.00;101078.28;6015637;23;20226;-68
2023/03/04 07:50:13;;;;;;;5.68;3.17;;;;;;;5.36;100.00;101069.94;6038904;23;20208;-70
2023/03/04 07:52:47;;;;;;;6.93;2.33;;;;;;;5.45;100.00;101068.94;6039149;23;20180;-69
2023/03/04 07:55:17;;;;;;;5.35;2.42;;;;;;;5.46;100.00;101065.25;6039255;23;20189;-69
2023/03/04 07:57:47;;;;;;;4.95;2.42;;;;;;;5.52;100.00;101064.56;6038899;23;20232;-70
2023/03/04 08:00:19;;;;;;;4.38;2.65;;;;;;;5.60;100.00;101061.91;6038934;23;20170;-69
2023/03/04 08:02:48;;;;;;;4.60;2.47;;;;;;;5.54;99.60;101067.94;6040453;23;20245;-69
2023/03/04 08:05:18;;;;;;;5.72;2.05;;;;;;;5.59;100.00;101070.97;6039270;23;20177;-70
2023/03/04 08:07:47;;;;;;;11.38;4.85;;;;;;;5.61;99.07;101063.59;6039012;23;20284;-70
2023/03/04 08:10:16;;;;;;;6.18;2.00;;;;;;;5.45;99.57;101070.78;6038849;23;20246;-68
2023/03/04 08:12:45;;;;;;;5.25;2.97;;;;;;;5.59;99.58;101057.56;6039506;23;20173;-71
2023/03/04 08:15:14;;;;;;;2.88;2.00;;;;;;;5.53;98.60;101066.25;6038899;23;20174;-69
2023/03/04 08:17:45;;;;;;;4.45;2.72;;;;;;;5.34;99.22;101050.47;6040419;23;20272;-69
2023/03/04 08:20:14;;;;;;;2.75;2.25;;;;;;;5.33;99.81;101064.88;6038785;23;20253;-69
2023/03/04 08:22:44;;;;;;;14.80;2.70;;;;;;;5.30;99.65;101061.69;6040014;23;20201;-69
2023/03/04 08:25:13;;;;;;;8.40;3.15;;;;;;;5.43;99.82;101060.19;6038401;23;20177;-70
2023/03/04 08:27:42;;;;;;;7.90;2.83;;;;;;;5.40;98.36;101068.59;6038438;23;20200;-68
2023/03/04 08:30:12;;;;;;;3.30;1.80;;;;;;;5.62;98.26;101064.41;6038663;23;20181;-69
2023/03/04 08:32:41;;;;;;;5.28;2.65;;;;;;;5.61;97.30;101057.41;6038638;23;20260;-69
2023/03/04 08:35:11;;;;;;;6.63;3.10;;;;;;;5.50;95.44;101047.81;6039356;23;20169;-69
2023/03/04 08:37:40;;;;;;;3.50;2.25;;;;;;;5.45;95.01;101055.53;6038688;23;20662;-69
2023/03/04 08:40:11;;;;;;;12.38;2.45;;;;;;;5.77;94.19;101051.16;6041948;23;20165;-69
2023/03/04 08:42:40;;;;;;;6.65;2.35;;;;;;;5.70;91.37;101056.41;6039291;23;20278;-68
2023/03/04 08:45:10;;;;;;;4.95;2.95;;;;;;;5.69;90.82;101050.19;6038704;23;20571;-69
2023/03/04 08:47:39;;;;;;;4.55;1.98;;;;;;;5.92;90.74;101038.78;6038239;23;20564;-68
2023/03/04 08:50:11;;;;;;;6.13;2.67;;;;;;;6.08;88.94;101044.16;6038695;23;20175;-68
2023/03/04 08:52:41;;;;;;;6.50;2.25;;;;;;;6.30;87.00;101040.75;6039248;23;20177;-70
2023/03/04 08:55:10;;;;;;;5.32;2.22;;;;;;;6.19;85.33;101037.59;6038438;23;20197;-69
2023/03/04 08:57:39;;;;;;;7.13;2.35;;;;;;;6.07;84.68;101045.16;6037877;23;20205;-71
2023/03/04 09:00:10;;;;;;;6.68;2.17;;;;;;;6.11;83.26;101025.84;6038213;23;20170;-70
2023/03/04 09:02:39;;;;;;;5.75;2.72;;;;;;;6.27;81.16;101033.06;6014586;23;20594;-67
2023/03/04 09:05:09;;;;;;;5.72;2.65;;;;;;;6.35;81.73;101038.41;6038333;23;20233;-68
2023/03/04 09:07:39;;;;;;;5.90;2.30;;;;;;;6.21;80.82;101028.34;6038033;23;20281;-68
2023/03/04 09:10:10;;;;;;;4.63;2.75;;;;;;;6.18;80.25;101034.09;6038325;23;20198;-70
2023/03/04 09:12:39;;;;;;;5.50;1.88;;;;;;;6.21;81.16;101038.25;6039819;23;20174;-69
2023/03/04 09:15:09;;;;;;;6.55;2.40;;;;;;;6.27;79.80;101038.44;6037987;23;20200;-69
2023/03/04 09:17:40;;;;;;;9.55;2.40;;;;;;;6.33;79.12;101032.38;6038058;23;20519;-68
2023/03/04 09:20:12;;;;;;;5.05;2.40;;;;;;;6.19;78.45;101053.72;6038012;23;20555;-68
2023/03/04 09:22:43;;;;;;;10.65;2.03;;;;;;;6.40;77.81;101048.63;6013950;23;20221;-68
2023/03/04 09:25:14;;;;;;;6.57;2.08;;;;;;;6.50;78.94;101049.28;6038424;23;20650;-69
2023/03/04 09:27:43;;;;;;;4.85;1.50;;;;;;;6.49;79.29;101052.97;6037830;23;20201;-69
2023/03/04 09:30:13;;;;;;;9.23;2.08;;;;;;;6.38;79.69;101056.91;6038164;23;20178;-69
2023/03/04 09:32:42;;;;;;;3.45;1.80;;;;;;;6.43;80.34;101054.53;6038162;23;20170;-69
2023/03/04 09:35:11;;;;;;;4.22;2.10;;;;;;;6.40;79.23;101049.47;6015100;23;20257;-69
2023/03/04 09:37:41;;;;;;;5.43;1.80;;;;;;;6.24;79.92;101070.19;6037905;23;20217;-68
2023/03/04 09:40:19;;;;;;;6.20;2.15;;;;;;;6.11;80.29;101068.00;6038514;23;20629;-69
2023/03/04 09:42:51;;;;;;;13.32;5.07;;;;;;;6.24;80.51;101054.91;6040740;23;20186;-70
2023/03/04 09:45:24;;;;;;;5.90;2.67;;;;;;;6.26;79.83;101058.25;6038359;23;20190;-68
2023/03/04 09:47:56;;;;;;;4.80;2.13;;;;;;;6.34;78.45;101071.66;6037461;23;20659;-70
2023/03/04 09:50:26;;;;;;;6.13;2.28;;;;;;;6.27;78.91;101059.94;6038167;23;20165;-70
2023/03/04 09:53:07;;;;;;;10.05;2.67;;;;;;;6.51;78.51;101059.88;6037997;23;20258;-69
2023/03/04 09:55:39;;;;;;;5.05;2.90;;;;;;;6.53;78.34;101057.03;6038298;23;20213;-69
2023/03/04 09:58:20;;;;;;;2.35;1.50;;;;;;;6.36;78.03;101064.28;6037857;23;20197;-70
2023/03/04 10:00:55;;;;;;;7.45;1.80;;;;;;;6.44;78.77;101061.56;6014421;23;20233;-70
2023/03/04 10:03:28;;;;;;;8.32;1.90;;;;;;;6.43;78.31;101064.44;6037893;23;20201;-68
2023/03/04 10:06:02;;;;;;;7.03;2.03;;;;;;;6.55;77.63;101058.53;6043270;23;20167;-70
2023/03/04 10:08:50;;;;;;;4.55;1.75;;;;;;;6.47;77.20;101063.94;6039009;23;20726;-69
2023/03/04 10:11:24;;;;;;;12.43;2.10;;;;;;;6.36;77.70;101058.91;6039403;23;20167;-69
2023/03/04 10:14:15;;;;;;;4.47;1.88;;;;;;;6.56;77.12;101053.97;6037742;23;20177;-70
2023/03/04 10:16:49;;;;;;;8.80;2.53;;;;;;;6.62;75.56;101055.16;6037877;23;20272;-68
2023/03/04 10:19:30;;;;;;;4.97;2.45;;;;;;;6.51;75.63;101054.50;6037579;23;20611;-69
2023/03/04 10:21:59;;;;;;;7.95;2.10;;;;;;;6.57;75.89;101054.81;6037872;23;20170;-69
2023/03/04 10:24:31;;;;;;;7.38;2.50;;;;;;;6.74;75.49;101061.81;6038024;23;20245;-69
2023/03/04 10:27:05;;;;;;;5.50;1.83;;;;;;;6.73;75.91;101054.78;6040666;23;20187;-68
2023/03/04 10:29:36;;;;;;;6.65;2.38;;;;;;;6.80;75.77;101050.38;6037492;23;20195;-70
2023/03/04 10:32:09;;;;;;;6.53;2.38;;;;;;;6.60;76.62;101046.41;6037807;23;20254;-69
2023/03/04 10:34:38;;;;;;;6.32;1.65;;;;;;;6.65;76.28;101050.25;6037357;23;20241;-69
2023/03/04 10:37:08;;;;;;;13.00;2.47;;;;;;;6.91;75.89;101050.84;6037663;23;20251;-70
2023/03/04 10:39:41;;;;;;;7.80;3.15;;;;;;;7.17;75.54;101057.78;6037622;23;20209;-69
2023/03/04 10:42:27;;;;;;;11.43;2.70;;;;;;;7.03;74.31;101053.13;6014529;23;20171;-70
2023/03/04 10:44:59;;;;;;;11.52;2.70;;;;;;;6.79;73.91;101054.91;6040458;23;20202;-69
2023/03/04 10:47:30;;;;;;;9.40;2.65;;;;;;;6.64;73.84;101061.19;6037885;23;20199;-69
2023/03/04 10:50:00;;;;;;;10.15;7.05;;;;;;;6.71;73.22;101052.25;6038334;23;20190;-71
2023/03/04 10:52:31;;;;;;;5.35;3.22;;;;;;;6.75;73.15;101052.75;6037806;23;20175;-70
2023/03/04 10:55:06;;;;;;;9.88;2.30;;;;;;;6.49;72.84;101056.50;6039606;23;20248;-70
2023/03/04 10:57:39;;;;;;;13.43;3.35;;;;;;;6.36;73.36;101064.28;6013861;23;20198;-70
2023/03/04 11:00:26;;;;;;;6.35;3.38;;;;;;;6.36;72.57;101068.81;6014037;23;20170;-69
2023/03/04 11:03:24;;;;;;;13.60;2.40;;;;;;;6.29;71.65;101073.22;6037214;23;20239;-69
2023/03/04 11:06:17;;;;;;;6.57;2.50;;;;;;;6.43;70.92;101059.91;6038936;23;20149;-69
2023/03/04 11:08:53;;;;;;;7.38;2.75;;;;;;;6.63;69.50;101062.22;6037378;23;20178;-69
2023/03/04 11:22:23;;;;;;;12.00;2.20;;;;;;;6.43;70.11;101062.59;6230608;22;1472761;-71
2023/03/04 11:24:59;;;;;;;5.75;2.55;;;;;;;6.52;70.31;101064.25;6257853;22;20221;-72
2023/03/04 11:27:42;;;;;;;16.45;3.17;;;;;;;6.83;69.00;101066.16;6257544;22;20339;-70
2023/03/04 11:30:34;;;;;;;9.20;2.47;;;;;;;6.87;67.48;101060.25;6257008;22;20208;-73
2023/03/04 11:33:21;;;;;;;15.10;4.10;;;;;;;6.98;66.37;101061.72;6257047;22;20164;-70
2023/03/04 11:36:04;;;;;;;13.50;2.90;;;;;;;6.82;64.90;101081.47;6257025;22;20175;-69
2023/03/04 11:38:39;;;;;;;6.32;2.55;;;;;;;6.64;65.19;101056.63;6256749;22;20275;-71
2023/03/04 11:41:15;;;;;;;5.63;2.80;;;;;;;6.63;65.21;101064.91;6256918;22;20609;-71
2023/03/04 11:43:46;;;;;;;14.38;5.90;;;;;;;6.77;64.75;101072.25;6256533;22;20160;-71
2023/03/04 11:46:45;;;;;;;11.77;2.92;;;;;;;6.71;64.49;101072.94;6283731;22;20156;-70
2023/03/04 11:49:42;;;;;;;11.85;3.78;;;;;;;6.83;64.68;101075.06;6256827;22;20258;-70
2023/03/04 11:52:24;;;;;;;9.93;2.33;;;;;;;6.38;66.00;101073.03;6256963;22;20519;-70
2023/03/04 11:55:18;;;;;;;10.25;4.20;;;;;;;6.58;66.03;101068.09;6257157;22;20244;-70